Spruce, Michigan
Current Conditions -  °F | °C
As of 3:54 AM on Saturday 29 Nov 2014 (Local Time) from KAPN Reporting Station
Overcast Overcast  
Wind Chill: 17°   Ceiling: 5000
Heat Index: 26°   Visibility: 9mi
Dew Point: 23°   Wind: 9mph
Humidity: 88%   Direction: 180°S
Pressure: 29.95"   Gusts: NA
Location:  44.84°N, 83.47°W
Report Text: KAPN 290854Z AUTO 18008KT 9SM OVC050 M03/M05 A2995 RMK AO2 SLP155 T10331050 58018
Loading
Personal Weather Stations






























Interactive Weather Map New forecast layout! Learn more

10-Day Weather Forecast

Advertisements
Track Severe Weather on mobile